Time;durP1;ratioP1;P1;durP2;ratioP2;P2;SDS_P1;SDS_P2;PMS_P1;PMS_P2;Temp;Humidity;BMP_temperature;BMP_pressure;BME280_temperature;BME280_humidity;BME280_pressure;Samples;Min_cycle;Max_cycle;Signal;HPM_P1;HPM_P2
2022/05/27 00:01:50;;;;;;;3.83;1.40;;;;;;;16.14;73.46;102085.72;5013936;28;97969;-33
2022/05/27 00:04:15;;;;;;;5.95;1.30;;;;;;;16.15;73.75;102084.75;5013245;28;97361;-33
2022/05/27 00:06:49;;;;;;;5.97;1.52;;;;;;;16.13;73.76;102075.75;5012540;28;117000;-33
2022/05/27 00:09:14;;;;;;;7.28;1.80;;;;;;;16.10;74.03;102076.84;5013610;28;112936;-33
2022/05/27 00:11:40;;;;;;;12.43;2.30;;;;;;;16.16;74.18;102083.78;5012886;28;108821;-33
2022/05/27 00:14:05;;;;;;;6.68;1.42;;;;;;;16.16;73.86;102078.31;5013460;28;98634;-33
2022/05/27 00:16:30;;;;;;;7.80;1.55;;;;;;;16.20;74.67;102085.31;5012962;28;96641;-33
2022/05/27 00:18:58;;;;;;;7.88;1.67;;;;;;;16.16;73.66;102081.03;5013068;28;109606;-33
2022/05/27 00:21:23;;;;;;;4.40;1.55;;;;;;;16.07;73.89;102071.56;4995402;28;101528;-33
2022/05/27 00:23:48;;;;;;;7.45;2.15;;;;;;;16.07;74.87;102065.25;5012373;28;97717;-33
2022/05/27 00:26:14;;;;;;;12.32;1.92;;;;;;;16.11;74.67;102077.72;5012308;28;116611;-33
2022/05/27 00:28:39;;;;;;;11.82;1.75;;;;;;;16.03;74.61;102078.22;5013605;28;96765;-33
2022/05/27 00:31:06;;;;;;;5.97;1.52;;;;;;;16.05;75.16;102078.13;5013427;28;97979;-33
2022/05/27 00:33:33;;;;;;;12.55;1.92;;;;;;;16.03;75.96;102082.81;4995506;28;100945;-33
2022/05/27 00:35:58;;;;;;;8.38;1.48;;;;;;;15.95;75.55;102083.31;4995028;28;98028;-33
2022/05/27 00:38:23;;;;;;;5.25;1.58;;;;;;;15.96;74.97;102085.06;5012541;28;118317;-33
2022/05/27 00:40:55;;;;;;;4.20;1.38;;;;;;;16.02;74.98;102097.47;5012173;28;118815;-33
2022/05/27 00:43:21;;;;;;;;;;;;;;;16.00;75.20;102103.03;5013507;28;99253;-33
2022/05/27 00:46:11;;;;;;;1.98;0.90;;;;;;;15.95;74.96;102102.44;5013379;28;96599;-33
2022/05/27 00:48:38;;;;;;;1.33;0.93;;;;;;;15.86;75.15;102101.16;5012883;28;96845;-33
2022/05/27 00:51:11;;;;;;;5.80;1.52;;;;;;;15.80;76.48;102092.47;5012918;28;97866;-33
2022/05/27 00:53:43;;;;;;;8.23;1.40;;;;;;;15.69;76.22;102085.81;4994930;28;100839;-33
2022/05/27 00:56:13;;;;;;;6.63;1.45;;;;;;;15.70;75.92;102084.00;4995130;28;97223;-33
2022/05/27 00:58:49;;;;;;;9.10;2.10;;;;;;;15.65;76.40;102081.50;4995168;28;96818;-33
2022/05/27 01:01:16;;;;;;;6.13;1.90;;;;;;;15.70;76.22;102082.13;4994674;28;100865;-33
2022/05/27 01:03:43;;;;;;;4.57;1.77;;;;;;;15.71;76.73;102081.16;4994449;28;99787;-33
2022/05/27 01:06:08;;;;;;;6.68;2.20;;;;;;;15.65;76.03;102072.44;5012399;28;96796;-33
2022/05/27 01:08:34;;;;;;;8.40;2.15;;;;;;;15.63;76.31;102063.47;5013009;28;96802;-33
2022/05/27 01:11:02;;;;;;;4.97;1.75;;;;;;;15.73;75.81;102074.72;5012567;28;97458;-33
2022/05/27 01:14:04;;;;;;;5.28;1.67;;;;;;;15.60;77.74;102082.78;5012450;28;105115;-33
2022/05/27 01:16:48;;;;;;;13.50;1.80;;;;;;;15.58;77.04;102062.88;4994749;28;96603;-33
2022/05/27 01:23:15;;;;;;;6.95;1.90;;;;;;;15.58;76.97;102077.41;5010862;28;97033;-33
2022/05/27 01:26:03;;;;;;;;;;;;;;;15.57;76.49;102080.25;5013266;28;97380;-34
2022/05/27 01:28:50;;;;;;;8.88;1.23;;;;;;;15.51;77.47;102078.78;5011366;28;96595;-33
2022/05/27 01:31:42;;;;;;;6.18;2.10;;;;;;;15.46;77.07;102084.53;5012556;28;96648;-33
2022/05/27 01:34:15;;;;;;;6.83;1.87;;;;;;;15.47;77.47;102085.44;4993600;28;100814;-33
2022/05/27 01:36:55;;;;;;;4.13;1.70;;;;;;;15.42;77.13;102074.78;5010922;28;100939;-33
2022/05/27 01:39:48;;;;;;;8.90;2.03;;;;;;;15.48;77.35;102088.03;4994374;28;96674;-33
2022/05/27 01:42:46;;;;;;;4.20;1.55;;;;;;;15.49;77.53;102080.72;5012271;28;96898;-33
2022/05/27 01:45:19;;;;;;;5.20;1.48;;;;;;;15.45;76.62;102073.72;5010825;28;100890;-33
2022/05/27 01:48:08;;;;;;;7.40;1.65;;;;;;;15.45;77.13;102073.72;4994062;28;100893;-33
2022/05/27 01:50:39;;;;;;;6.28;1.85;;;;;;;15.45;77.13;102068.25;5012171;28;96810;-33
2022/05/27 01:53:26;;;;;;;8.32;1.60;;;;;;;15.52;76.96;102069.63;5011148;28;96784;-33
2022/05/27 01:55:58;;;;;;;7.20;1.48;;;;;;;15.52;76.72;102080.53;4993885;28;100301;-33
2022/05/27 01:58:30;;;;;;;5.97;1.35;;;;;;;15.50;77.03;102077.03;5011825;28;98854;-33
2022/05/27 02:00:56;;;;;;;10.32;1.98;;;;;;;15.43;76.69;102067.47;4993765;28;96924;-33
2022/05/27 02:03:33;;;;;;;4.40;1.55;;;;;;;15.46;77.01;102080.91;5011533;28;96753;-33
2022/05/27 02:06:07;;;;;;;6.53;1.63;;;;;;;15.44;77.18;102080.13;5010467;28;101460;-33
2022/05/27 02:08:52;;;;;;;3.08;1.50;;;;;;;15.42;77.13;102074.78;4993810;28;100731;-33
2022/05/27 02:11:19;;;;;;;7.10;1.70;;;;;;;15.39;76.31;102068.63;4993863;28;96931;-33
2022/05/27 02:14:08;;;;;;;10.38;2.15;;;;;;;15.44;77.16;102066.47;5011653;28;96810;-33
2022/05/27 02:16:48;;;;;;;4.80;1.67;;;;;;;15.34;76.63;102062.56;4993712;28;100790;-33
2022/05/27 02:19:32;;;;;;;9.63;1.35;;;;;;;15.42;76.79;102071.16;4994034;28;101075;-33
2022/05/27 02:22:03;;;;;;;4.13;1.48;;;;;;;15.43;76.53;102073.78;4993750;28;96583;-33
2022/05/27 02:24:37;;;;;;;11.10;1.85;;;;;;;15.42;76.89;102073.88;5012097;28;96602;-33
2022/05/27 02:27:28;;;;;;;5.55;1.50;;;;;;;15.42;76.95;102080.25;4992685;28;101355;-33
2022/05/27 02:29:58;;;;;;;5.20;1.10;;;;;;;15.43;76.18;102078.38;5002465;28;97812;-33
2022/05/27 02:32:29;;;;;;;2.90;1.70;;;;;;;15.38;76.50;102073.22;4993644;28;96637;-33
2022/05/27 02:35:09;;;;;;;6.65;1.58;;;;;;;15.39;76.59;102076.81;4993809;28;96650;-33
2022/05/27 02:37:40;;;;;;;4.50;1.20;;;;;;;15.42;77.00;102077.53;5010032;28;100968;-33
2022/05/27 02:40:12;;;;;;;2.13;1.35;;;;;;;15.34;76.77;102068.91;5011493;28;97884;-33
2022/05/27 02:43:05;;;;;;;8.43;1.60;;;;;;;15.39;76.86;102066.75;4993651;28;96850;-33
2022/05/27 02:45:40;;;;;;;3.30;1.27;;;;;;;15.30;76.48;102050.94;5011925;28;96772;-33
2022/05/27 02:48:19;;;;;;;6.20;1.92;;;;;;;15.38;76.58;102067.75;4996609;28;100834;-33
2022/05/27 02:50:54;;;;;;;6.55;1.38;;;;;;;15.35;76.51;102072.50;5013437;28;100901;-33
2022/05/27 02:54:01;;;;;;;8.82;1.83;;;;;;;15.34;76.81;102079.81;5013001;28;97005;-33
2022/05/27 02:56:33;;;;;;;2.83;1.35;;;;;;;15.26;76.56;102071.25;4976715;28;96695;-33
2022/05/27 02:59:00;;;;;;;5.30;1.52;;;;;;;15.24;76.51;102073.19;4996540;28;101232;-33
2022/05/27 03:01:25;;;;;;;4.65;1.05;;;;;;;15.19;76.64;102070.75;4996598;28;101129;-33
2022/05/27 03:04:37;;;;;;;7.53;1.65;;;;;;;15.25;76.82;102086.75;5013906;28;102127;-33
2022/05/27 03:07:33;;;;;;;6.68;1.65;;;;;;;15.25;76.62;102083.13;5014788;28;96921;-33
2022/05/27 03:10:35;;;;;;;3.88;1.58;;;;;;;15.18;76.51;102069.00;5014228;28;98840;-33
2022/05/27 03:13:19;;;;;;;4.03;1.47;;;;;;;15.22;76.08;102070.53;4996655;28;101258;-33
2022/05/27 03:15:50;;;;;;;4.80;1.50;;;;;;;15.22;76.16;102086.91;5014819;28;96595;-33
2022/05/27 03:18:32;;;;;;;1.75;1.27;;;;;;;15.14;76.32;102066.53;5013247;28;96743;-33
2022/05/27 03:21:30;;;;;;;2.95;1.55;;;;;;;15.16;76.63;102076.41;5014238;28;97389;-33
2022/05/27 03:24:10;;;;;;;11.80;1.35;;;;;;;15.15;76.17;102069.16;4969631;28;98011;-33
2022/05/27 03:26:46;;;;;;;3.60;1.10;;;;;;;15.14;76.42;102085.66;5014662;28;96862;-33
2022/05/27 03:29:28;;;;;;;7.35;1.52;;;;;;;15.10;76.11;102062.25;5013024;28;96852;-33
2022/05/27 03:32:06;;;;;;;8.40;1.77;;;;;;;15.11;76.42;102080.34;4996238;28;100896;-33
2022/05/27 03:34:42;;;;;;;3.85;1.60;;;;;;;15.11;76.48;102078.53;5012864;28;100846;-33
2022/05/27 03:37:21;;;;;;;7.03;1.45;;;;;;;15.08;76.29;102074.09;4996102;28;99182;-33
2022/05/27 03:39:59;;;;;;;4.13;1.30;;;;;;;15.14;76.29;102080.19;5014479;28;96702;-33
2022/05/27 03:42:26;;;;;;;2.53;1.35;;;;;;;15.03;76.55;102075.38;5012747;28;100994;-33
2022/05/27 03:45:04;;;;;;;8.15;1.73;;;;;;;15.02;76.79;102081.81;4995886;28;100730;-33
2022/05/27 03:47:29;;;;;;;5.10;1.85;;;;;;;15.01;77.02;102071.84;4995505;28;98340;-33
2022/05/27 03:49:54;;;;;;;3.80;2.05;;;;;;;15.01;76.16;102078.19;5014276;28;96761;-33
2022/05/27 03:52:23;;;;;;;3.45;1.30;;;;;;;15.07;76.38;102085.13;5013973;28;97437;-33
2022/05/27 03:54:48;;;;;;;9.30;1.67;;;;;;;15.02;76.27;102085.41;4995797;28;100838;-33
2022/05/27 03:57:14;;;;;;;6.10;1.38;;;;;;;15.02;76.08;102092.72;5014118;28;96535;-33
2022/05/27 03:59:39;;;;;;;2.45;1.25;;;;;;;15.04;76.05;102105.31;5013796;28;96766;-33
2022/05/27 04:02:05;;;;;;;3.50;1.30;;;;;;;14.99;75.75;102095.63;5013446;28;98897;-33
2022/05/27 04:04:31;;;;;;;5.18;1.45;;;;;;;15.02;76.00;102103.66;5013749;28;96652;-33
2022/05/27 04:06:56;;;;;;;4.28;1.20;;;;;;;15.04;75.96;102101.69;5013712;28;96588;-33
2022/05/27 04:09:23;;;;;;;7.88;1.83;;;;;;;15.04;75.69;102104.41;5013594;28;96825;-33
2022/05/27 04:11:50;;;;;;;5.43;0.98;;;;;;;15.05;75.61;102106.19;5011367;28;101458;-33
2022/05/27 04:14:16;;;;;;;5.38;1.65;;;;;;;15.06;75.21;102102.47;5012213;28;100664;-33
2022/05/27 04:16:41;;;;;;;3.80;1.10;;;;;;;14.98;75.23;102088.41;5012068;28;96599;-33
2022/05/27 04:19:07;;;;;;;5.22;1.20;;;;;;;15.06;74.85;102097.00;5013588;28;96519;-33
2022/05/27 04:21:33;;;;;;;4.63;1.67;;;;;;;15.01;74.85;102101.88;5013215;28;99203;-33
2022/05/27 04:23:58;;;;;;;8.95;1.50;;;;;;;15.04;75.00;102105.31;5013396;28;99236;-33
2022/05/27 04:26:24;;;;;;;3.65;1.13;;;;;;;14.99;74.84;102098.34;5013383;28;96454;-33
2022/05/27 04:28:49;;;;;;;7.70;1.73;;;;;;;14.98;74.55;102096.59;5014068;28;97118;-33
2022/05/27 04:31:15;;;;;;;5.20;1.10;;;;;;;14.97;74.39;102103.91;5013070;28;97502;-33
2022/05/27 04:33:41;;;;;;;3.17;1.25;;;;;;;14.98;74.38;102093.88;5013210;28;99505;-33
2022/05/27 04:36:07;;;;;;;4.18;1.20;;;;;;;15.00;74.43;102100.13;5012571;28;104510;-33
2022/05/27 04:38:33;;;;;;;2.90;1.45;;;;;;;15.00;74.43;102108.31;4995070;28;96827;-33
2022/05/27 04:40:59;;;;;;;3.38;1.48;;;;;;;14.94;74.23;102104.09;4994958;28;100733;-33
2022/05/27 04:43:24;;;;;;;4.75;1.27;;;;;;;14.99;74.36;102112.91;5013442;28;97318;-33
2022/05/27 04:45:50;;;;;;;3.80;1.20;;;;;;;14.98;73.95;102111.13;5013016;28;96637;-33
2022/05/27 04:48:17;;;;;;;3.47;1.17;;;;;;;14.99;73.93;102098.34;5013425;28;96741;-33
2022/05/27 04:50:43;;;;;;;4.45;1.33;;;;;;;15.00;73.90;102098.28;5011681;28;101126;-33
2022/05/27 04:53:09;;;;;;;1.60;0.82;;;;;;;15.09;73.79;102115.94;5012747;28;113959;-33
2022/05/27 04:55:36;;;;;;;5.22;1.45;;;;;;;15.05;73.63;102106.19;4995015;28;96686;-33
2022/05/27 04:58:02;;;;;;;7.07;1.42;;;;;;;15.08;73.62;102114.16;4994958;28;96888;-33
2022/05/27 05:00:31;;;;;;;8.50;1.52;;;;;;;15.11;73.51;102118.56;5011987;28;99261;-33
2022/05/27 05:02:57;;;;;;;3.28;1.17;;;;;;;15.12;73.58;102126.69;4993878;28;100649;-33
2022/05/27 05:05:26;;;;;;;2.90;1.40;;;;;;;15.15;73.61;102133.78;5011442;28;96550;-33
2022/05/27 05:08:03;;;;;;;8.00;1.45;;;;;;;15.18;73.49;102122.69;5011429;28;96753;-33
2022/05/27 05:10:29;;;;;;;7.53;1.45;;;;;;;15.17;73.48;102126.41;5009387;28;100848;-33
2022/05/27 05:12:55;;;;;;;1.60;1.05;;;;;;;15.19;73.43;102125.34;5010892;28;98063;-33
2022/05/27 05:15:21;;;;;;;2.13;1.00;;;;;;;15.15;73.69;102123.75;5009860;28;96639;-33
2022/05/27 05:17:47;;;;;;;6.95;1.63;;;;;;;15.20;73.53;102135.25;4993535;28;96887;-33
2022/05/27 05:20:16;;;;;;;3.83;1.40;;;;;;;15.20;73.35;102127.06;5010822;28;99015;-33
2022/05/27 05:22:41;;;;;;;2.95;1.20;;;;;;;15.17;73.39;102116.34;4992974;28;101083;-33
2022/05/27 05:25:08;;;;;;;9.10;1.85;;;;;;;15.23;73.28;102137.81;5010805;28;96614;-33
2022/05/27 05:27:34;;;;;;;3.90;1.38;;;;;;;15.22;73.24;102138.78;4992645;28;96911;-33
2022/05/27 05:30:01;;;;;;;2.30;1.15;;;;;;;15.26;73.29;102136.75;4992814;28;100850;-33
2022/05/27 05:32:26;;;;;;;4.68;1.35;;;;;;;15.21;73.03;102128.84;4992871;28;100752;-33
2022/05/27 05:34:52;;;;;;;3.80;1.23;;;;;;;15.26;72.69;102140.38;5010918;28;96767;-33
2022/05/27 05:37:18;;;;;;;3.35;1.30;;;;;;;15.21;72.75;102137.03;4992957;28;96888;-33
2022/05/27 05:39:44;;;;;;;6.85;1.10;;;;;;;15.19;72.53;102140.84;5010992;28;97319;-33
2022/05/27 05:42:10;;;;;;;3.33;1.08;;;;;;;15.21;72.52;102149.81;5010636;28;99790;-33
2022/05/27 05:44:36;;;;;;;1.15;0.80;;;;;;;15.20;72.35;102157.09;4992872;28;96760;-33
2022/05/27 05:47:02;;;;;;;3.55;1.40;;;;;;;15.19;72.19;102154.47;5010394;28;107391;-33
2022/05/27 05:49:28;;;;;;;3.33;1.08;;;;;;;15.26;72.18;102158.59;4992213;28;100349;-33
2022/05/27 05:51:56;;;;;;;3.53;0.90;;;;;;;15.32;71.67;102141.84;5010656;28;97222;-33
2022/05/27 05:54:23;;;;;;;5.18;1.50;;;;;;;15.40;71.80;102150.44;5010567;28;96648;-33
2022/05/27 05:56:49;;;;;;;2.15;1.13;;;;;;;15.53;71.51;102145.09;5009300;28;96834;-33
2022/05/27 05:59:15;;;;;;;5.57;1.23;;;;;;;15.70;71.02;102165.94;5010591;28;97906;-33
2022/05/27 06:01:41;;;;;;;4.43;1.10;;;;;;;15.70;70.58;102157.75;4992434;28;100720;-33
2022/05/27 06:04:09;;;;;;;4.05;1.05;;;;;;;15.70;70.55;102163.22;4963689;28;1134155;-33
2022/05/27 06:06:36;;;;;;;4.78;1.00;;;;;;;15.63;70.86;102156.34;5030995;28;96897;-33
2022/05/27 06:09:02;;;;;;;4.30;0.80;;;;;;;15.59;70.91;102144.75;5013769;28;100988;-33
2022/05/27 06:11:28;;;;;;;2.88;1.35;;;;;;;15.58;70.98;102153.88;5012115;28;100782;-33
2022/05/27 06:13:53;;;;;;;4.18;1.38;;;;;;;15.59;70.78;102172.06;5030969;28;112352;-33
2022/05/27 06:16:18;;;;;;;1.75;1.08;;;;;;;15.46;70.65;102168.31;5013498;28;114403;-33
2022/05/27 06:18:45;;;;;;;2.10;1.08;;;;;;;15.37;70.88;102188.84;5031997;28;97870;-33
2022/05/27 06:21:10;;;;;;;5.85;1.27;;;;;;;15.37;70.60;102187.97;5014415;28;99885;-33
2022/05/27 06:23:36;;;;;;;4.32;1.05;;;;;;;15.36;70.19;102186.22;5017351;28;96668;-34
2022/05/27 06:26:10;;;;;;;4.85;1.60;;;;;;;15.40;70.05;102190.53;5035475;28;99141;-33
2022/05/27 06:36:54;;;;;;;7.53;1.60;;;;;;;15.49;69.79;102184.50;5035656;28;96538;-33
2022/05/27 06:39:20;;;;;;;;;;;;;;;15.65;69.90;102195.38;5033529;28;100849;-33
2022/05/27 06:41:45;;;;;;;3.25;1.38;;;;;;;15.64;70.13;102197.22;5035062;28;98691;-33
2022/05/27 06:44:11;;;;;;;5.10;1.33;;;;;;;15.80;69.81;102196.28;5035076;28;96512;-33
2022/05/27 06:46:36;;;;;;;5.50;1.65;;;;;;;16.00;69.49;102204.16;5034383;28;113172;-33
2022/05/27 06:49:03;;;;;;;4.90;1.42;;;;;;;16.05;68.81;102193.78;5035212;28;97919;-33
2022/05/27 06:51:29;;;;;;;3.65;1.80;;;;;;;16.12;68.57;102208.84;5033493;28;101334;-33
2022/05/27 06:53:55;;;;;;;6.72;1.40;;;;;;;16.03;67.95;102200.34;5034939;28;96532;-33
2022/05/27 06:56:21;;;;;;;7.22;1.25;;;;;;;16.07;67.24;102218.31;5017119;28;96858;-33
2022/05/27 06:58:47;;;;;;;8.63;1.30;;;;;;;16.14;67.24;102206.88;5033255;28;99218;-33
2022/05/27 07:01:13;;;;;;;3.75;1.23;;;;;;;16.05;67.27;102210.19;5034800;28;97368;-33
2022/05/27 07:03:39;;;;;;;6.65;1.30;;;;;;;16.02;66.86;102213.13;5027179;28;96765;-33
2022/05/27 07:06:05;;;;;;;4.45;1.27;;;;;;;16.03;65.49;102203.94;5013297;28;97047;-33
2022/05/27 07:08:31;;;;;;;3.70;1.20;;;;;;;15.99;65.94;102213.31;5013193;28;101031;-33
2022/05/27 07:10:56;;;;;;;4.07;0.93;;;;;;;15.95;65.87;102216.34;5014180;28;99078;-33
2022/05/27 07:13:21;;;;;;;4.95;1.42;;;;;;;15.85;64.91;102213.28;5014494;28;96470;-33
2022/05/27 07:15:47;;;;;;;4.60;1.52;;;;;;;15.79;65.22;102222.75;5014047;28;115011;-33
2022/05/27 07:18:12;;;;;;;8.13;1.73;;;;;;;15.78;65.31;102225.56;5013956;28;120022;-33
2022/05/27 07:20:38;;;;;;;2.72;1.17;;;;;;;15.77;65.46;102227.44;5014885;28;97709;-33
2022/05/27 07:23:04;;;;;;;1.95;1.05;;;;;;;16.01;65.05;102224.16;5013327;28;96554;-33
2022/05/27 07:25:34;;;;;;;9.38;1.65;;;;;;;16.21;64.35;102226.53;5014634;28;96902;-33
2022/05/27 07:28:01;;;;;;;4.95;1.67;;;;;;;16.41;63.74;102224.38;5012394;28;99235;-33
2022/05/27 07:30:26;;;;;;;2.88;1.50;;;;;;;16.49;61.09;102216.53;5012646;28;100726;-33
2022/05/27 07:32:52;;;;;;;3.08;1.00;;;;;;;16.75;62.90;102223.91;5013923;28;96648;-33
2022/05/27 07:35:17;;;;;;;1.40;0.90;;;;;;;16.91;61.47;102222.94;5014130;28;106583;-33
2022/05/27 07:37:42;;;;;;;2.08;1.08;;;;;;;16.88;61.86;102231.38;5013669;28;114371;-33
2022/05/27 07:40:08;;;;;;;5.40;1.25;;;;;;;16.72;60.96;102215.91;5013788;28;99245;-33
2022/05/27 07:42:34;;;;;;;5.20;1.25;;;;;;;16.51;60.19;102223.66;5014131;28;96655;-33
2022/05/27 07:44:59;;;;;;;4.43;1.08;;;;;;;16.35;62.30;102242.03;5013797;28;105483;-33
2022/05/27 07:47:24;;;;;;;5.30;1.23;;;;;;;16.11;61.42;102239.91;5013458;28;116336;-33
2022/05/27 07:49:49;;;;;;;7.32;1.15;;;;;;;16.06;61.49;102254.81;5013120;28;126357;-33
2022/05/27 07:52:15;;;;;;;4.22;1.23;;;;;;;15.90;60.13;102252.16;4994604;28;123377;-33
2022/05/27 07:54:40;;;;;;;2.85;0.88;;;;;;;15.90;62.08;102244.84;5014091;28;96850;-33
2022/05/27 07:57:23;;;;;;;4.78;1.27;;;;;;;15.82;62.14;102249.00;5012974;28;125467;-33
2022/05/27 07:59:54;;;;;;;6.40;1.80;;;;;;;15.91;62.66;102256.63;4995798;28;101405;-33
2022/05/27 08:02:21;;;;;;;5.63;1.30;;;;;;;15.91;63.36;102262.09;5013777;28;106602;-33
2022/05/27 08:04:46;;;;;;;4.50;1.27;;;;;;;16.07;62.99;102254.72;5013623;28;96763;-33
2022/05/27 08:07:12;;;;;;;7.63;1.33;;;;;;;16.06;63.58;102258.41;5013883;28;98125;-33
2022/05/27 08:09:37;;;;;;;2.67;1.02;;;;;;;16.10;63.22;102259.13;5012859;28;125922;-33
2022/05/27 08:12:03;;;;;;;3.30;1.95;;;;;;;16.15;61.56;102256.97;5013511;28;96944;-33
2022/05/27 08:14:28;;;;;;;2.33;1.30;;;;;;;16.16;61.44;102264.22;5013717;28;96878;-33
2022/05/27 08:16:53;;;;;;;9.52;1.40;;;;;;;16.05;61.03;102253.94;5012229;28;123849;-33
2022/05/27 08:19:18;;;;;;;2.63;1.30;;;;;;;16.39;59.79;102265.47;5013342;28;103249;-33
2022/05/27 08:21:44;;;;;;;2.03;0.85;;;;;;;16.58;58.92;102264.31;5012843;28;119739;-33
2022/05/27 08:24:09;;;;;;;4.97;0.88;;;;;;;16.70;57.96;102255.31;5013498;28;96639;-33
2022/05/27 08:26:35;;;;;;;5.45;1.23;;;;;;;16.95;58.24;102263.72;5012324;28;126647;-33
2022/05/27 08:29:00;;;;;;;3.70;1.20;;;;;;;17.26;57.28;102269.88;5011725;28;100987;-33
2022/05/27 08:31:25;;;;;;;2.08;0.68;;;;;;;17.41;53.43;102279.78;5012548;28;119080;-33
2022/05/27 08:39:18;;;;;;;5.65;1.35;;;;;;;17.97;53.78;102259.56;5013343;28;97057;-33
2022/05/27 08:42:12;;;;;;;4.43;1.00;;;;;;;18.09;53.56;102288.91;5012251;28;114597;-33
2022/05/27 08:44:48;;;;;;;9.27;1.50;;;;;;;18.21;53.71;102265.19;4994284;28;97207;-33
2022/05/27 08:47:28;;;;;;;6.10;1.23;;;;;;;18.45;53.08;102282.66;5011598;28;101064;-33
2022/05/27 08:50:07;;;;;;;6.50;1.42;;;;;;;18.75;53.09;102294.25;5012956;28;99375;-33
2022/05/27 08:52:50;;;;;;;9.88;0.93;;;;;;;18.76;52.02;102285.00;5012178;28;96606;-32
2022/05/27 09:01:03;;;;;;;4.05;1.13;;;;;;;18.68;54.21;102283.69;5011618;28;96646;-33
2022/05/27 09:03:33;;;;;;;3.53;1.27;;;;;;;18.54;52.41;102288.44;5012610;28;97000;-33
2022/05/27 09:06:04;;;;;;;6.70;1.13;;;;;;;18.68;52.67;102286.44;4994893;28;96861;-33
2022/05/27 09:08:31;;;;;;;4.83;1.30;;;;;;;18.96;51.72;102292.69;4994164;28;100851;-33
2022/05/27 09:11:07;;;;;;;5.40;1.40;;;;;;;19.07;52.31;102295.53;4994395;28;101304;-33
2022/05/27 09:14:04;;;;;;;3.50;1.10;;;;;;;19.04;49.17;102303.09;4994832;28;96707;-33
2022/05/27 09:16:37;;;;;;;3.83;1.10;;;;;;;19.11;47.84;102296.16;4994880;28;96695;-33
2022/05/27 09:19:12;;;;;;;7.68;1.48;;;;;;;19.09;50.20;102306.38;5012435;28;98992;-33
2022/05/27 09:21:59;;;;;;;5.50;1.10;;;;;;;18.86;50.97;102319.97;4994908;28;100127;-33
2022/05/27 09:24:24;;;;;;;3.60;1.20;;;;;;;18.94;50.18;102316.66;5011280;28;96734;-33
2022/05/27 09:27:14;;;;;;;10.77;1.45;;;;;;;19.20;49.64;102320.22;5012675;28;96905;-33
2022/05/27 09:29:58;;;;;;;7.97;1.25;;;;;;;19.35;50.04;102307.19;4994238;28;100648;-33
2022/05/27 09:32:31;;;;;;;4.50;1.40;;;;;;;19.61;47.80;102318.94;5012616;28;97849;-33
2022/05/27 09:35:03;;;;;;;6.22;1.08;;;;;;;19.31;49.90;102308.44;4977397;28;97534;-33
2022/05/27 09:37:37;;;;;;;3.45;1.33;;;;;;;18.89;48.34;102318.84;4994468;28;97067;-33
2022/05/27 09:40:13;;;;;;;5.80;1.45;;;;;;;18.78;50.14;102314.16;4994015;28;101263;-33
2022/05/27 09:42:46;;;;;;;4.35;1.33;;;;;;;19.08;49.32;102305.50;5012221;28;99848;-33
2022/05/27 09:45:12;;;;;;;6.68;1.35;;;;;;;19.01;50.35;102303.34;4994422;28;96630;-33
2022/05/27 09:47:38;;;;;;;7.30;1.60;;;;;;;18.75;51.35;102319.81;5012208;28;96843;-33
2022/05/27 09:50:08;;;;;;;4.65;1.30;;;;;;;18.45;51.23;102309.22;5010688;28;100866;-33
2022/05/27 09:52:38;;;;;;;8.50;1.58;;;;;;;18.34;52.11;102309.09;4994433;28;100876;-33
2022/05/27 09:55:32;;;;;;;5.57;1.05;;;;;;;18.39;50.72;102309.63;4993871;28;96728;-33
2022/05/27 09:58:04;;;;;;;3.92;1.00;;;;;;;18.46;50.31;102302.72;4994217;28;96743;-33
2022/05/27 10:00:39;;;;;;;;;;;;;;;18.28;50.73;102306.78;4993819;28;100605;-33
2022/05/27 10:03:29;;;;;;;6.53;1.17;;;;;;;18.22;50.98;102317.19;5011531;28;101130;-33
2022/05/27 10:06:02;;;;;;;4.35;1.13;;;;;;;18.12;51.81;102307.00;5011967;28;96529;-33
2022/05/27 10:08:32;;;;;;;4.93;1.00;;;;;;;18.05;51.11;102312.03;5011845;28;96817;-33
2022/05/27 10:11:28;;;;;;;5.50;1.00;;;;;;;17.86;52.05;102317.03;4993475;28;101712;-33
2022/05/27 10:14:10;;;;;;;10.15;1.75;;;;;;;18.09;51.79;102334.63;5011126;28;99116;-33
2022/05/27 10:16:38;;;;;;;6.13;1.10;;;;;;;18.20;51.87;102326.53;5011784;28;96438;-33
2022/05/27 10:19:13;;;;;;;3.75;1.15;;;;;;;18.53;51.50;102316.88;4993981;28;96838;-34
2022/05/27 10:21:53;;;;;;;4.90;1.45;;;;;;;18.85;50.06;102333.78;4993932;28;99745;-33
2022/05/27 10:24:27;;;;;;;5.22;1.75;;;;;;;19.00;48.61;102323.56;5012001;28;97799;-33
2022/05/27 10:27:09;;;;;;;8.02;1.52;;;;;;;19.00;49.53;102329.94;5011002;28;96613;-33
2022/05/27 10:29:56;;;;;;;3.83;1.10;;;;;;;18.71;50.21;102337.53;5011685;28;96788;-33
2022/05/27 10:32:40;;;;;;;5.18;1.10;;;;;;;18.72;49.11;102350.25;4993525;28;101456;-33
2022/05/27 10:35:09;;;;;;;8.00;1.35;;;;;;;18.62;50.08;102352.78;5011833;28;97413;-33
2022/05/27 10:38:10;;;;;;;6.80;1.20;;;;;;;18.71;49.00;102353.09;4993542;28;96747;-33
2022/05/27 10:40:35;;;;;;;5.00;1.33;;;;;;;18.98;50.08;102362.13;5009884;28;96980;-34
2022/05/27 10:43:06;;;;;;;3.45;1.10;;;;;;;19.17;49.06;102350.66;5011050;28;98908;-33
2022/05/27 10:45:38;;;;;;;6.23;1.37;;;;;;;19.25;49.08;102356.44;5011993;28;97340;-33
2022/05/27 10:48:35;;;;;;;6.57;1.40;;;;;;;19.43;48.03;102340.47;4992951;28;96819;-33
2022/05/27 10:51:24;;;;;;;3.13;1.17;;;;;;;19.61;48.41;102351.94;5002059;28;96822;-34
2022/05/27 10:54:04;;;;;;;5.53;1.17;;;;;;;;;;5025990;28;99054;-32
2022/05/27 11:03:00;;;;;;;5.20;1.15;;;;;;;20.06;46.93;102345.78;5024878;28;96582;-34
2022/05/27 11:05:34;;;;;;;;;;;;;;;20.19;45.95;102360.38;5011731;28;99926;-33
2022/05/27 11:08:18;;;;;;;4.63;0.85;;;;;;;20.27;45.14;102360.63;4995106;28;97879;-33
2022/05/27 11:10:53;;;;;;;9.07;1.23;;;;;;;20.23;44.44;102345.34;4996735;28;96593;-33
2022/05/27 11:17:23;;;;;;;4.72;1.23;;;;;;;20.22;44.45;102360.13;5013362;28;97072;-33
2022/05/27 11:20:24;;;;;;;3.92;0.75;;;;;;;20.19;41.96;102365.88;4984833;28;99324;-33
2022/05/27 11:22:58;;;;;;;2.13;0.73;;;;;;;20.33;43.83;102368.41;5013927;28;96765;-33
2022/05/27 11:25:48;;;;;;;5.70;0.98;;;;;;;20.41;42.32;102358.66;5013960;28;96854;-32
2022/05/27 11:28:50;;;;;;;5.63;0.95;;;;;;;20.44;40.85;102372.19;5013983;28;97654;-33
2022/05/27 11:31:25;;;;;;;;;;;;;;;20.41;41.83;102381.56;4996020;28;100978;-33
2022/05/27 11:34:08;;;;;;;2.63;0.82;;;;;;;20.47;42.90;102393.94;5013286;28;96647;-33
2022/05/27 11:37:09;;;;;;;3.83;0.90;;;;;;;20.49;43.63;102372.69;5014559;28;96673;-33
2022/05/27 11:39:53;;;;;;;4.05;1.00;;;;;;;20.36;40.95;102376.41;5005199;28;98159;-33
2022/05/27 11:42:49;;;;;;;3.35;0.68;;;;;;;20.54;40.95;102376.81;5012939;28;99163;-33
2022/05/27 11:45:24;;;;;;;3.75;0.88;;;;;;;20.60;40.52;102374.63;5014148;28;96607;-33
2022/05/27 11:48:08;;;;;;;4.85;0.82;;;;;;;20.69;40.08;102387.63;4977966;28;96886;-34
2022/05/27 11:50:55;;;;;;;2.55;0.73;;;;;;;20.78;40.57;102382.31;5013030;28;98909;-33
2022/05/27 11:53:32;;;;;;;2.33;0.70;;;;;;;20.83;41.29;102381.03;5013934;28;98832;-33
2022/05/27 11:56:08;;;;;;;3.13;1.00;;;;;;;20.83;41.24;102379.16;5014049;28;96639;-34
2022/05/27 11:58:50;;;;;;;2.22;0.52;;;;;;;20.91;41.12;102373.91;4995903;28;96752;-33
2022/05/27 12:01:22;;;;;;;4.50;0.77;;;;;;;21.04;39.84;102390.31;4995506;28;101078;-34
2022/05/27 12:04:21;;;;;;;5.07;1.50;;;;;;;20.96;40.82;102368.91;5013157;28;105959;-33
2022/05/27 12:06:51;;;;;;;3.00;0.88;;;;;;;20.69;40.41;102385.78;5014083;28;97093;-33
2022/05/27 12:09:34;;;;;;;2.53;0.55;;;;;;;20.86;41.93;102378.91;5012916;28;96776;-33
2022/05/27 12:12:07;;;;;;;1.70;0.60;;;;;;;20.82;40.22;102382.03;5013244;28;99315;-33
2022/05/27 12:14:39;;;;;;;5.28;1.30;;;;;;;20.82;41.44;102382.03;4995601;28;101145;-33
2022/05/27 12:17:12;;;;;;;3.03;0.93;;;;;;;20.79;40.55;102388.69;5013033;28;96573;-33
2022/05/27 12:19:44;;;;;;;3.47;0.65;;;;;;;20.85;40.66;102398.31;4994380;28;96807;-33
2022/05/27 12:22:18;;;;;;;3.47;0.95;;;;;;;20.76;39.88;102399.91;5013222;28;99176;-33
2022/05/27 12:24:48;;;;;;;3.83;0.82;;;;;;;20.69;42.08;102396.81;4995343;28;101159;-33